sensor_id;sensor_type;location;lat;lon;timestamp;P1;durP1;ratioP1;P2;durP2;ratioP2
61009;SDS011;46897;55.340;86.082;2023-05-07T10:55:25;33.22;;;23.55;;
61009;SDS011;46897;55.340;86.082;2023-05-07T10:57:54;39.08;;;24.98;;
61009;SDS011;46897;55.340;86.082;2023-05-07T11:01:00;36.40;;;23.77;;
61009;SDS011;46897;55.340;86.082;2023-05-07T11:03:32;43.28;;;24.25;;
61009;SDS011;46897;55.340;86.082;2023-05-07T11:08:55;34.75;;;23.10;;
61009;SDS011;46897;55.340;86.082;2023-05-07T11:12:01;30.77;;;22.63;;
61009;SDS011;46897;55.340;86.082;2023-05-07T11:14:51;45.47;;;24.35;;
61009;SDS011;46897;55.340;86.082;2023-05-07T11:17:24;31.73;;;23.58;;
61009;SDS011;46897;55.340;86.082;2023-05-07T11:20:11;35.35;;;22.75;;
61009;SDS011;46897;55.340;86.082;2023-05-07T11:22:41;37.53;;;23.58;;
61009;SDS011;46897;55.340;86.082;2023-05-07T11:25:17;32.92;;;24.00;;
61009;SDS011;46897;55.340;86.082;2023-05-07T11:27:51;40.83;;;25.25;;
61009;SDS011;46897;55.340;86.082;2023-05-07T11:30:41;34.60;;;25.48;;
61009;SDS011;46897;55.340;86.082;2023-05-07T11:33:11;43.63;;;25.52;;
61009;SDS011;46897;55.340;86.082;2023-05-07T11:35:59;41.35;;;24.95;;
61009;SDS011;46897;55.340;86.082;2023-05-07T11:47:24;34.13;;;23.88;;
61009;SDS011;46897;55.340;86.082;2023-05-07T11:49:53;34.25;;;25.60;;
61009;SDS011;46897;55.340;86.082;2023-05-07T11:52:23;41.15;;;26.38;;
61009;SDS011;46897;55.340;86.082;2023-05-07T12:00:29;51.85;;;27.35;;
61009;SDS011;46897;55.340;86.082;2023-05-07T12:03:02;42.85;;;25.85;;
61009;SDS011;46897;55.340;86.082;2023-05-07T12:05:33;40.70;;;26.17;;
61009;SDS011;46897;55.340;86.082;2023-05-07T12:08:21;40.60;;;25.52;;
61009;SDS011;46897;55.340;86.082;2023-05-07T12:10:50;41.55;;;25.10;;
61009;SDS011;46897;55.340;86.082;2023-05-07T12:13:20;47.60;;;26.25;;
61009;SDS011;46897;55.340;86.082;2023-05-07T12:15:52;47.58;;;28.63;;
61009;SDS011;46897;55.340;86.082;2023-05-07T12:18:22;40.60;;;27.70;;
61009;SDS011;46897;55.340;86.082;2023-05-07T12:20:53;49.30;;;28.83;;
61009;SDS011;46897;55.340;86.082;2023-05-07T12:23:22;48.97;;;29.95;;
61009;SDS011;46897;55.340;86.082;2023-05-07T12:25:52;46.70;;;31.20;;
61009;SDS011;46897;55.340;86.082;2023-05-07T12:31:29;51.25;;;32.75;;
61009;SDS011;46897;55.340;86.082;2023-05-07T12:34:16;51.92;;;32.50;;
61009;SDS011;46897;55.340;86.082;2023-05-07T12:36:46;52.10;;;32.47;;
61009;SDS011;46897;55.340;86.082;2023-05-07T12:39:17;51.58;;;32.20;;
61009;SDS011;46897;55.340;86.082;2023-05-07T12:41:53;57.88;;;33.10;;
61009;SDS011;46897;55.340;86.082;2023-05-07T12:44:40;48.28;;;32.65;;
61009;SDS011;46897;55.340;86.082;2023-05-07T12:47:15;62.05;;;33.78;;
61009;SDS011;46897;55.340;86.082;2023-05-07T12:49:44;56.03;;;34.13;;
61009;SDS011;46897;55.340;86.082;2023-05-07T12:52:14;69.35;;;35.47;;
61009;SDS011;46897;55.340;86.082;2023-05-07T12:57:37;68.07;;;35.80;;
61009;SDS011;46897;55.340;86.082;2023-05-07T13:03:03;75.95;;;41.72;;
61009;SDS011;46897;55.340;86.082;2023-05-07T13:05:33;57.17;;;32.58;;
61009;SDS011;46897;55.340;86.082;2023-05-07T13:10:55;103.57;;;40.83;;
61009;SDS011;46897;55.340;86.082;2023-05-07T13:13:24;107.57;;;50.58;;
61009;SDS011;46897;55.340;86.082;2023-05-07T13:15:58;81.28;;;37.00;;
61009;SDS011;46897;55.340;86.082;2023-05-07T13:21:36;83.50;;;38.78;;
61009;SDS011;46897;55.340;86.082;2023-05-07T13:24:06;96.72;;;41.35;;
61009;SDS011;46897;55.340;86.082;2023-05-07T13:26:36;90.40;;;42.72;;
61009;SDS011;46897;55.340;86.082;2023-05-07T13:29:06;88.30;;;40.85;;
61009;SDS011;46897;55.340;86.082;2023-05-07T13:31:37;84.32;;;41.55;;
61009;SDS011;46897;55.340;86.082;2023-05-07T13:34:11;85.50;;;43.80;;
61009;SDS011;46897;55.340;86.082;2023-05-07T13:36:58;100.90;;;44.47;;
61009;SDS011;46897;55.340;86.082;2023-05-07T13:39:27;94.97;;;44.33;;
61009;SDS011;46897;55.340;86.082;2023-05-07T13:47:52;131.93;;;54.45;;
61009;SDS011;46897;55.340;86.082;2023-05-07T13:50:23;149.68;;;57.45;;
61009;SDS011;46897;55.340;86.082;2023-05-07T13:52:53;143.45;;;59.72;;
61009;SDS011;46897;55.340;86.082;2023-05-07T13:55:23;138.23;;;61.60;;
61009;SDS011;46897;55.340;86.082;2023-05-07T13:57:56;142.55;;;63.72;;
61009;SDS011;46897;55.340;86.082;2023-05-07T14:03:30;141.35;;;62.13;;
61009;SDS011;46897;55.340;86.082;2023-05-07T14:06:02;136.52;;;60.70;;
61009;SDS011;46897;55.340;86.082;2023-05-07T14:08:32;135.55;;;58.70;;
61009;SDS011;46897;55.340;86.082;2023-05-07T14:11:01;128.88;;;57.08;;
61009;SDS011;46897;55.340;86.082;2023-05-07T14:13:30;132.65;;;53.30;;
61009;SDS011;46897;55.340;86.082;2023-05-07T14:16:03;133.30;;;53.40;;
61009;SDS011;46897;55.340;86.082;2023-05-07T14:18:33;140.32;;;55.70;;
61009;SDS011;46897;55.340;86.082;2023-05-07T14:21:06;114.78;;;53.55;;
61009;SDS011;46897;55.340;86.082;2023-05-07T14:23:54;141.43;;;54.55;;
61009;SDS011;46897;55.340;86.082;2023-05-07T14:26:23;138.30;;;55.65;;
61009;SDS011;46897;55.340;86.082;2023-05-07T14:28:54;149.43;;;55.88;;
61009;SDS011;46897;55.340;86.082;2023-05-07T14:31:25;168.10;;;59.60;;
61009;SDS011;46897;55.340;86.082;2023-05-07T14:33:54;218.00;;;83.13;;
61009;SDS011;46897;55.340;86.082;2023-05-07T14:36:26;227.57;;;87.72;;
61009;SDS011;46897;55.340;86.082;2023-05-07T14:38:57;282.38;;;112.72;;
61009;SDS011;46897;55.340;86.082;2023-05-07T14:41:26;277.30;;;105.95;;
61009;SDS011;46897;55.340;86.082;2023-05-07T14:43:56;261.67;;;105.03;;
61009;SDS011;46897;55.340;86.082;2023-05-07T14:46:25;228.63;;;89.40;;
61009;SDS011;46897;55.340;86.082;2023-05-07T14:48:55;268.48;;;102.07;;
61009;SDS011;46897;55.340;86.082;2023-05-07T14:51:26;304.77;;;119.22;;
61009;SDS011;46897;55.340;86.082;2023-05-07T14:53:56;307.92;;;121.10;;
61009;SDS011;46897;55.340;86.082;2023-05-07T14:56:25;331.08;;;126.45;;
61009;SDS011;46897;55.340;86.082;2023-05-07T14:58:55;329.08;;;130.82;;
61009;SDS011;46897;55.340;86.082;2023-05-07T15:01:24;319.85;;;132.88;;
61009;SDS011;46897;55.340;86.082;2023-05-07T15:03:54;343.70;;;133.13;;
61009;SDS011;46897;55.340;86.082;2023-05-07T15:06:43;349.10;;;139.23;;
61009;SDS011;46897;55.340;86.082;2023-05-07T15:09:13;368.90;;;152.80;;
61009;SDS011;46897;55.340;86.082;2023-05-07T15:11:43;371.90;;;152.60;;
61009;SDS011;46897;55.340;86.082;2023-05-07T15:19:48;263.27;;;114.50;;
61009;SDS011;46897;55.340;86.082;2023-05-07T15:22:21;266.38;;;103.30;;
61009;SDS011;46897;55.340;86.082;2023-05-07T15:24:50;229.52;;;99.70;;
61009;SDS011;46897;55.340;86.082;2023-05-07T15:27:36;209.75;;;96.03;;
61009;SDS011;46897;55.340;86.082;2023-05-07T15:30:06;206.88;;;91.53;;
61009;SDS011;46897;55.340;86.082;2023-05-07T15:32:37;219.35;;;94.30;;
61009;SDS011;46897;55.340;86.082;2023-05-07T15:35:07;212.38;;;92.43;;
61009;SDS011;46897;55.340;86.082;2023-05-07T15:37:40;212.43;;;92.80;;
61009;SDS011;46897;55.340;86.082;2023-05-07T15:40:09;231.50;;;96.35;;
61009;SDS011;46897;55.340;86.082;2023-05-07T15:42:39;242.73;;;98.80;;
61009;SDS011;46897;55.340;86.082;2023-05-07T15:45:11;259.52;;;104.82;;
61009;SDS011;46897;55.340;86.082;2023-05-07T15:47:57;244.27;;;102.55;;
61009;SDS011;46897;55.340;86.082;2023-05-07T15:50:26;288.17;;;112.60;;
61009;SDS011;46897;55.340;86.082;2023-05-07T15:55:44;287.52;;;117.53;;
61009;SDS011;46897;55.340;86.082;2023-05-07T15:58:15;312.77;;;120.60;;
61009;SDS011;46897;55.340;86.082;2023-05-07T16:00:46;298.38;;;123.07;;
61009;SDS011;46897;55.340;86.082;2023-05-07T16:09:25;285.92;;;118.93;;
61009;SDS011;46897;55.340;86.082;2023-05-07T16:11:55;269.63;;;115.90;;
61009;SDS011;46897;55.340;86.082;2023-05-07T16:14:24;301.52;;;121.05;;
61009;SDS011;46897;55.340;86.082;2023-05-07T16:17:11;284.25;;;120.90;;
61009;SDS011;46897;55.340;86.082;2023-05-07T16:19:40;305.35;;;118.93;;
61009;SDS011;46897;55.340;86.082;2023-05-07T16:22:10;250.00;;;108.82;;
61009;SDS011;46897;55.340;86.082;2023-05-07T16:27:51;236.20;;;98.85;;
61009;SDS011;46897;55.340;86.082;2023-05-07T16:30:37;226.43;;;95.80;;
61009;SDS011;46897;55.340;86.082;2023-05-07T16:33:07;221.63;;;91.97;;
61009;SDS011;46897;55.340;86.082;2023-05-07T16:35:36;217.50;;;90.65;;
61009;SDS011;46897;55.340;86.082;2023-05-07T16:38:23;222.38;;;91.47;;
61009;SDS011;46897;55.340;86.082;2023-05-07T16:40:54;220.95;;;92.95;;
61009;SDS011;46897;55.340;86.082;2023-05-07T16:43:23;224.70;;;97.85;;
61009;SDS011;46897;55.340;86.082;2023-05-07T16:46:10;238.10;;;92.63;;
61009;SDS011;46897;55.340;86.082;2023-05-07T16:48:40;233.40;;;91.70;;
61009;SDS011;46897;55.340;86.082;2023-05-07T16:51:09;226.48;;;90.60;;
61009;SDS011;46897;55.340;86.082;2023-05-07T16:53:57;223.65;;;90.95;;
61009;SDS011;46897;55.340;86.082;2023-05-07T16:56:28;202.85;;;84.10;;
61009;SDS011;46897;55.340;86.082;2023-05-07T16:58:57;181.82;;;79.68;;
61009;SDS011;46897;55.340;86.082;2023-05-07T17:04:17;192.45;;;81.28;;
61009;SDS011;46897;55.340;86.082;2023-05-07T17:06:47;184.90;;;78.43;;
61009;SDS011;46897;55.340;86.082;2023-05-07T17:12:42;144.93;;;67.32;;
61009;SDS011;46897;55.340;86.082;2023-05-07T17:15:11;140.68;;;63.25;;
61009;SDS011;46897;55.340;86.082;2023-05-07T17:17:40;137.82;;;64.22;;
61009;SDS011;46897;55.340;86.082;2023-05-07T17:20:10;131.45;;;61.75;;
61009;SDS011;46897;55.340;86.082;2023-05-07T17:22:40;133.18;;;61.20;;
61009;SDS011;46897;55.340;86.082;2023-05-07T17:25:10;141.95;;;64.47;;
61009;SDS011;46897;55.340;86.082;2023-05-07T17:27:59;144.52;;;62.55;;
61009;SDS011;46897;55.340;86.082;2023-05-07T17:30:28;132.07;;;61.17;;
61009;SDS011;46897;55.340;86.082;2023-05-07T17:32:57;130.68;;;63.22;;
61009;SDS011;46897;55.340;86.082;2023-05-07T17:35:45;137.43;;;62.72;;
61009;SDS011;46897;55.340;86.082;2023-05-07T17:38:14;135.48;;;63.08;;
61009;SDS011;46897;55.340;86.082;2023-05-07T17:40:43;137.48;;;64.57;;
61009;SDS011;46897;55.340;86.082;2023-05-07T17:43:14;137.63;;;66.80;;
61009;SDS011;46897;55.340;86.082;2023-05-07T17:45:44;142.75;;;66.18;;
61009;SDS011;46897;55.340;86.082;2023-05-07T17:48:30;137.63;;;63.65;;
61009;SDS011;46897;55.340;86.082;2023-05-07T17:50:59;139.65;;;63.25;;
61009;SDS011;46897;55.340;86.082;2023-05-07T17:53:29;143.93;;;65.13;;
61009;SDS011;46897;55.340;86.082;2023-05-07T17:56:36;156.63;;;66.75;;
61009;SDS011;46897;55.340;86.082;2023-05-07T17:59:07;136.35;;;63.95;;
61009;SDS011;46897;55.340;86.082;2023-05-07T18:04:23;143.63;;;63.78;;
61009;SDS011;46897;55.340;86.082;2023-05-07T18:06:54;149.15;;;64.90;;
61009;SDS011;46897;55.340;86.082;2023-05-07T18:09:23;134.48;;;64.82;;
61009;SDS011;46897;55.340;86.082;2023-05-07T18:11:52;143.45;;;66.25;;
61009;SDS011;46897;55.340;86.082;2023-05-07T18:14:23;146.70;;;63.38;;
61009;SDS011;46897;55.340;86.082;2023-05-07T18:17:11;157.50;;;64.47;;
61009;SDS011;46897;55.340;86.082;2023-05-07T18:19:41;140.38;;;62.63;;
61009;SDS011;46897;55.340;86.082;2023-05-07T18:22:10;131.60;;;62.65;;
61009;SDS011;46897;55.340;86.082;2023-05-07T18:24:39;141.77;;;61.80;;
61009;SDS011;46897;55.340;86.082;2023-05-07T18:27:08;136.05;;;60.00;;
61009;SDS011;46897;55.340;86.082;2023-05-07T18:29:41;137.70;;;61.35;;
61009;SDS011;46897;55.340;86.082;2023-05-07T18:32:10;149.45;;;65.35;;
61009;SDS011;46897;55.340;86.082;2023-05-07T18:34:57;146.23;;;68.25;;
61009;SDS011;46897;55.340;86.082;2023-05-07T18:37:26;146.25;;;67.75;;
61009;SDS011;46897;55.340;86.082;2023-05-07T18:39:56;145.43;;;66.45;;
61009;SDS011;46897;55.340;86.082;2023-05-07T18:42:27;128.68;;;59.42;;
61009;SDS011;46897;55.340;86.082;2023-05-07T18:45:00;137.50;;;61.10;;
61009;SDS011;46897;55.340;86.082;2023-05-07T18:53:09;133.70;;;59.28;;
61009;SDS011;46897;55.340;86.082;2023-05-07T18:55:38;123.65;;;55.58;;
61009;SDS011;46897;55.340;86.082;2023-05-07T18:58:07;127.05;;;56.67;;
61009;SDS011;46897;55.340;86.082;2023-05-07T19:00:38;118.00;;;57.30;;
61009;SDS011;46897;55.340;86.082;2023-05-07T19:03:07;121.32;;;55.15;;
61009;SDS011;46897;55.340;86.082;2023-05-07T19:05:54;112.32;;;55.67;;
61009;SDS011;46897;55.340;86.082;2023-05-07T19:08:23;113.07;;;54.53;;
61009;SDS011;46897;55.340;86.082;2023-05-07T19:13:41;112.90;;;53.45;;
61009;SDS011;46897;55.340;86.082;2023-05-07T19:16:31;117.25;;;54.70;;
61009;SDS011;46897;55.340;86.082;2023-05-07T19:19:01;119.70;;;52.95;;
61009;SDS011;46897;55.340;86.082;2023-05-07T19:21:30;112.85;;;53.33;;
61009;SDS011;46897;55.340;86.082;2023-05-07T19:24:17;139.45;;;53.47;;
61009;SDS011;46897;55.340;86.082;2023-05-07T19:26:46;139.98;;;55.80;;
61009;SDS011;46897;55.340;86.082;2023-05-07T19:29:16;121.13;;;53.97;;
61009;SDS011;46897;55.340;86.082;2023-05-07T19:31:46;107.85;;;52.38;;
61009;SDS011;46897;55.340;86.082;2023-05-07T19:34:15;103.97;;;53.40;;
61009;SDS011;46897;55.340;86.082;2023-05-07T19:36:44;113.30;;;53.80;;
61009;SDS011;46897;55.340;86.082;2023-05-07T19:42:01;115.88;;;52.55;;
61009;SDS011;46897;55.340;86.082;2023-05-07T19:44:30;114.65;;;51.42;;
61009;SDS011;46897;55.340;86.082;2023-05-07T19:47:01;120.90;;;51.35;;
61009;SDS011;46897;55.340;86.082;2023-05-07T19:49:31;116.53;;;51.20;;
61009;SDS011;46897;55.340;86.082;2023-05-07T19:54:48;115.55;;;51.13;;
61009;SDS011;46897;55.340;86.082;2023-05-07T19:57:17;119.63;;;52.70;;
61009;SDS011;46897;55.340;86.082;2023-05-07T20:00:04;120.10;;;51.47;;
61009;SDS011;46897;55.340;86.082;2023-05-07T20:02:35;123.95;;;51.40;;
61009;SDS011;46897;55.340;86.082;2023-05-07T20:05:05;111.70;;;50.42;;
61009;SDS011;46897;55.340;86.082;2023-05-07T20:07:34;119.50;;;50.05;;
61009;SDS011;46897;55.340;86.082;2023-05-07T20:10:04;111.78;;;51.25;;
61009;SDS011;46897;55.340;86.082;2023-05-07T20:12:34;118.57;;;50.60;;
61009;SDS011;46897;55.340;86.082;2023-05-07T20:15:22;108.70;;;49.33;;
61009;SDS011;46897;55.340;86.082;2023-05-07T20:17:53;96.18;;;46.38;;
61009;SDS011;46897;55.340;86.082;2023-05-07T20:20:22;113.30;;;47.35;;
61009;SDS011;46897;55.340;86.082;2023-05-07T20:22:51;97.78;;;44.03;;
61009;SDS011;46897;55.340;86.082;2023-05-07T20:25:21;100.65;;;44.55;;
61009;SDS011;46897;55.340;86.082;2023-05-07T20:27:50;92.20;;;44.33;;
61009;SDS011;46897;55.340;86.082;2023-05-07T20:33:44;100.32;;;43.80;;
61009;SDS011;46897;55.340;86.082;2023-05-07T20:36:13;93.20;;;44.20;;
61009;SDS011;46897;55.340;86.082;2023-05-07T20:41:30;96.18;;;43.97;;
61009;SDS011;46897;55.340;86.082;2023-05-07T20:44:17;93.53;;;43.00;;
61009;SDS011;46897;55.340;86.082;2023-05-07T20:46:46;91.50;;;43.95;;
61009;SDS011;46897;55.340;86.082;2023-05-07T20:49:17;94.15;;;43.03;;
61009;SDS011;46897;55.340;86.082;2023-05-07T20:51:47;87.03;;;42.42;;
61009;SDS011;46897;55.340;86.082;2023-05-07T20:54:34;90.18;;;43.50;;
61009;SDS011;46897;55.340;86.082;2023-05-07T20:57:06;99.97;;;44.75;;
61009;SDS011;46897;55.340;86.082;2023-05-07T20:59:35;93.55;;;43.78;;
61009;SDS011;46897;55.340;86.082;2023-05-07T21:02:06;91.57;;;42.53;;
61009;SDS011;46897;55.340;86.082;2023-05-07T21:04:36;95.78;;;45.72;;
61009;SDS011;46897;55.340;86.082;2023-05-07T21:07:06;92.22;;;44.10;;
61009;SDS011;46897;55.340;86.082;2023-05-07T21:09:35;90.80;;;42.60;;
61009;SDS011;46897;55.340;86.082;2023-05-07T21:12:22;96.60;;;43.72;;
61009;SDS011;46897;55.340;86.082;2023-05-07T21:14:51;83.95;;;41.03;;
61009;SDS011;46897;55.340;86.082;2023-05-07T21:17:21;90.00;;;43.50;;
61009;SDS011;46897;55.340;86.082;2023-05-07T21:19:51;86.97;;;42.33;;
61009;SDS011;46897;55.340;86.082;2023-05-07T21:22:20;87.55;;;43.50;;
61009;SDS011;46897;55.340;86.082;2023-05-07T21:25:08;90.88;;;42.42;;
61009;SDS011;46897;55.340;86.082;2023-05-07T21:27:39;88.55;;;44.42;;
61009;SDS011;46897;55.340;86.082;2023-05-07T21:30:08;97.65;;;43.10;;
61009;SDS011;46897;55.340;86.082;2023-05-07T21:32:39;89.75;;;42.45;;
61009;SDS011;46897;55.340;86.082;2023-05-07T21:35:28;95.20;;;41.42;;
61009;SDS011;46897;55.340;86.082;2023-05-07T21:37:58;95.68;;;43.88;;
61009;SDS011;46897;55.340;86.082;2023-05-07T21:40:46;90.07;;;43.67;;
61009;SDS011;46897;55.340;86.082;2023-05-07T21:43:33;85.95;;;40.85;;
61009;SDS011;46897;55.340;86.082;2023-05-07T21:46:19;87.97;;;41.40;;
61009;SDS011;46897;55.340;86.082;2023-05-07T21:48:49;86.38;;;41.63;;
61009;SDS011;46897;55.340;86.082;2023-05-07T21:51:19;87.25;;;40.88;;
61009;SDS011;46897;55.340;86.082;2023-05-07T21:53:48;86.00;;;40.25;;
61009;SDS011;46897;55.340;86.082;2023-05-07T21:56:18;93.50;;;41.63;;
61009;SDS011;46897;55.340;86.082;2023-05-07T21:58:47;86.57;;;39.50;;
61009;SDS011;46897;55.340;86.082;2023-05-07T22:01:16;84.68;;;39.97;;
61009;SDS011;46897;55.340;86.082;2023-05-07T22:03:46;86.53;;;39.22;;
61009;SDS011;46897;55.340;86.082;2023-05-07T22:06:33;85.63;;;38.83;;
61009;SDS011;46897;55.340;86.082;2023-05-07T22:09:21;93.68;;;39.13;;
61009;SDS011;46897;55.340;86.082;2023-05-07T22:11:50;88.60;;;38.55;;
61009;SDS011;46897;55.340;86.082;2023-05-07T22:14:19;82.85;;;37.85;;
61009;SDS011;46897;55.340;86.082;2023-05-07T22:16:48;87.85;;;37.75;;
61009;SDS011;46897;55.340;86.082;2023-05-07T22:19:18;81.07;;;36.75;;
61009;SDS011;46897;55.340;86.082;2023-05-07T22:21:48;79.63;;;37.17;;
61009;SDS011;46897;55.340;86.082;2023-05-07T22:24:17;82.63;;;37.88;;
61009;SDS011;46897;55.340;86.082;2023-05-07T22:26:47;77.63;;;36.63;;
61009;SDS011;46897;55.340;86.082;2023-05-07T22:29:16;82.72;;;37.08;;
61009;SDS011;46897;55.340;86.082;2023-05-07T22:31:46;82.88;;;35.70;;
61009;SDS011;46897;55.340;86.082;2023-05-07T22:34:35;83.88;;;38.85;;
61009;SDS011;46897;55.340;86.082;2023-05-07T22:37:05;83.13;;;35.78;;
61009;SDS011;46897;55.340;86.082;2023-05-07T22:39:35;77.85;;;35.45;;
61009;SDS011;46897;55.340;86.082;2023-05-07T22:42:04;73.80;;;36.20;;
61009;SDS011;46897;55.340;86.082;2023-05-07T22:44:33;77.68;;;36.50;;
61009;SDS011;46897;55.340;86.082;2023-05-07T22:47:02;76.30;;;35.90;;
61009;SDS011;46897;55.340;86.082;2023-05-07T22:49:33;73.25;;;34.95;;
61009;SDS011;46897;55.340;86.082;2023-05-07T22:52:21;83.22;;;35.72;;
61009;SDS011;46897;55.340;86.082;2023-05-07T22:54:50;82.45;;;37.78;;
61009;SDS011;46897;55.340;86.082;2023-05-07T22:57:20;83.60;;;36.15;;
61009;SDS011;46897;55.340;86.082;2023-05-07T22:59:52;79.32;;;36.03;;
61009;SDS011;46897;55.340;86.082;2023-05-07T23:02:21;88.35;;;37.35;;
61009;SDS011;46897;55.340;86.082;2023-05-07T23:04:53;80.13;;;35.33;;
61009;SDS011;46897;55.340;86.082;2023-05-07T23:07:41;76.43;;;36.28;;
61009;SDS011;46897;55.340;86.082;2023-05-07T23:10:11;87.53;;;37.03;;
61009;SDS011;46897;55.340;86.082;2023-05-07T23:12:40;87.35;;;37.38;;
61009;SDS011;46897;55.340;86.082;2023-05-07T23:17:59;84.25;;;38.30;;
61009;SDS011;46897;55.340;86.082;2023-05-07T23:20:28;87.72;;;39.03;;
61009;SDS011;46897;55.340;86.082;2023-05-07T23:23:00;90.93;;;37.58;;
61009;SDS011;46897;55.340;86.082;2023-05-07T23:25:49;86.32;;;40.53;;
61009;SDS011;46897;55.340;86.082;2023-05-07T23:28:20;84.88;;;38.10;;
61009;SDS011;46897;55.340;86.082;2023-05-07T23:30:49;80.15;;;36.00;;
61009;SDS011;46897;55.340;86.082;2023-05-07T23:33:18;75.47;;;36.08;;
61009;SDS011;46897;55.340;86.082;2023-05-07T23:35:48;78.20;;;34.47;;
61009;SDS011;46897;55.340;86.082;2023-05-07T23:38:35;78.00;;;34.45;;
61009;SDS011;46897;55.340;86.082;2023-05-07T23:41:05;76.15;;;33.67;;
61009;SDS011;46897;55.340;86.082;2023-05-07T23:43:51;78.47;;;37.08;;
61009;SDS011;46897;55.340;86.082;2023-05-07T23:49:08;88.50;;;38.70;;
61009;SDS011;46897;55.340;86.082;2023-05-07T23:51:37;82.78;;;38.25;;
61009;SDS011;46897;55.340;86.082;2023-05-07T23:54:09;88.78;;;40.05;;
61009;SDS011;46897;55.340;86.082;2023-05-07T23:56:38;96.25;;;41.28;;
61009;SDS011;46897;55.340;86.082;2023-05-07T23:59:07;89.40;;;42.22;;
